Latest Coastal Weather Observations for Redcliffe

IDQ60701

Issued at 5:12 am EST Sunday 1 February 2015 (issued every 10 minutes, with the page automatically refreshed every 10 minutes)

About coastal observations | Map of coastal stations | Coastal observations for QLD | Marine services | Other Formats
Station Details ID: 040958 Name: REDCLIFFE Lat: -27.22 Lon: 153.09 Height: 12.6 m
Data from the previous 72 hours. | See also: Recent months at Redcliffe
Date/Time
EST
Temp

°C
Wind Pressure Rain
since 9am
mm
Weather Cloud Vis
km
Sea
Height
m
Swell
Dir
 
Speed
knots
Gust
knots
hPa Trend Height
m
Period
s
Dir
01/05:00am 22.0 SSW 7 9 1006.0 - 0.0 - - - - - - -
01/04:30am 22.0 SSW 4 8 1005.6 - 0.0 - - - - - - -
01/04:00am 22.3 WSW 4 5 1005.5 - 0.0 - - - - - - -
01/03:30am 22.4 W 1 3 1005.3 - 0.0 - - - - - - -
01/03:00am 22.8 NW 5 5 1005.1 - 0.0 - - - - - - -
01/02:30am 22.9 NW 5 6 1005.2 - 0.0 - - - - - - -
01/02:00am 24.1 NNW 9 14 1005.2 - 0.0 - - - - - - -
01/01:30am 24.5 N 11 14 1005.5 - 0.0 - - - - - - -
01/01:00am 24.7 NNW 11 15 1005.7 - 0.0 - - - - - - -
01/12:30am 24.8 N 10 14 1006.0 - 0.0 - - - - - - -
01/12:00am 25.0 N 10 14 1006.4 - 0.0 - - - - - - -
 
Date/Time
EST
Temp

°C
Wind Pressure Rain
since 9am
mm
Weather Cloud Vis
km
Sea
Height
m
Swell
Dir
 
Speed
knots
Gust
knots
hPa Trend Height
m
Period
s
Dir
31/11:30pm 25.2 N 9 12 1006.6 - 0.0 - - - - - - -
31/11:00pm 25.3 N 8 13 1007.1 - 0.0 - - - - - - -
31/10:30pm 25.4 N 12 15 1007.3 - 0.0 - - - - - - -
31/10:00pm 25.3 NNE 13 15 1007.5 - 0.0 - - - - - - -
31/09:30pm 25.3 NNE 13 15 1007.4 - 0.0 - - - - - - -
31/09:00pm 24.9 NE 15 18 1007.2 - 0.0 - - - - - - -
31/08:30pm 25.0 NE 16 18 1006.9 - 0.0 - - - - - - -
31/08:00pm 24.7 NE 16 18 1006.6 - 0.0 - - - - - - -
31/07:30pm 24.5 NE 18 21 1006.3 - 0.0 - - - - - - -
31/07:00pm 24.6 ENE 18 20 1005.9 - 0.0 - - - - - - -
31/06:30pm 24.4 ESE 15 19 1006.0 - 0.0 - - - - - - -
31/06:20pm 23.7 ESE 16 20 1005.7 - 0.0 - - - - - - -
31/06:00pm 24.1 ESE 18 27 1005.8 - 0.0 - - - - - - -
31/05:56pm 27.2 E 14 27 1005.6 - 0.0 - - - - - - -
31/05:30pm 27.5 NNE 16 18 1004.3 - 0.0 - - - - - - -
31/05:00pm 27.4 NNE 17 20 1003.7 - 0.0 - - - - - - -
31/04:30pm 27.6 NNE 19 22 1003.3 - 0.0 - - - - - - -
31/04:00pm 27.4 NNE 20 24 1003.5 - 0.0 - - - - - - -
31/03:30pm 27.8 NNE 22 27 1003.4 - 0.0 - - - - - - -
31/03:00pm 28.0 NNE 22 25 1003.9 - 0.0 - - - - - - -
31/02:30pm 28.7 NE 20 23 1004.6 - 0.0 - - - - - - -
31/02:00pm 28.1 NE 19 21 1004.8 - 0.0 - - - - - - -
31/01:30pm 28.7 NE 17 20 1005.2 - 0.0 - - - - - - -
31/01:00pm 28.7 NE 15 18 1005.7 - 0.0 - - - - - - -
31/12:30pm 28.4 NE 14 17 1006.0 - 0.0 - - - - - - -
31/12:00pm 28.5 NE 12 14 1006.5 - 0.0 - - - - - - -
31/11:30am 28.0 NE 10 12 1006.7 - 0.0 - - - - - - -
31/11:00am 29.0 NE 8 10 1007.4 - 0.0 - - - - - - -
31/10:30am 27.9 NE 9 11 1007.8 - 0.0 - - - - - - -
31/10:00am 27.0 N 7 9 1008.1 - 0.0 - - - - - - -
31/09:30am 26.4 NE 8 9 1008.2 - 0.0 - - - - - - -
31/09:00am 25.7 NNE 5 6 1008.4 - 0.0 - - - - - - -
31/08:30am 25.3 NE 6 7 1008.3 - 0.0 - - - - - - -
31/08:00am 24.1 NE 6 6 1008.4 - 0.0 - - - - - - -
31/07:30am 23.7 N 3 5 1008.5 - 0.0 - - - - - - -
31/07:00am 23.1 WNW 4 5 1008.2 - 0.0 - - - - - - -
31/06:30am 21.9 WSW 5 6 1008.1 - 0.0 - - - - - - -
31/06:00am 20.7 WSW 4 6 1007.7 - 0.0 - - - - - - -
31/05:30am 20.0 SW 3 4 1007.3 - 0.0 - - - - - - -
31/05:00am 19.8 WSW 4 5 1007.0 - 0.0 - - - - - - -
31/04:30am 20.1 WNW 5 6 1006.8 - 0.0 - - - - - - -
31/04:00am 20.4 WNW 4 6 1006.6 - 0.0 - - - - - - -
31/03:30am 21.2 NNW 5 6 1006.4 - 0.0 - - - - - - -
31/03:00am 21.7 NNW 5 6 1006.3 - 0.0 - - - - - - -
31/02:30am 21.8 NNW 5 7 1006.3 - 0.0 - - - - - - -
31/02:00am 21.8 NNW 5 7 1006.4 - 0.0 - - - - - - -
31/01:30am 22.1 NNW 7 9 1006.6 - 0.0 - - - - - - -
31/01:00am 22.4 NNW 8 9 1006.8 - 0.0 - - - - - - -
31/12:30am 22.7 NNW 10 14 1007.2 - 0.0 - - - - - - -
31/12:00am 23.0 N 12 16 1007.6 - 0.0 - - - - - - -
 
Date/Time
EST
Temp

°C
Wind Pressure Rain
since 9am
mm
Weather Cloud Vis
km
Sea
Height
m
Swell
Dir
 
Speed
knots
Gust
knots
hPa Trend Height
m
Period
s
Dir
30/11:30pm 23.2 N 11 14 1007.8 - 0.0 - - - - - - -
30/11:00pm 23.4 NNW 10 15 1008.0 - 0.0 - - - - - - -
30/10:30pm 23.4 NNW 10 15 1008.1 - 0.0 - - - - - - -
30/10:00pm 23.6 NNW 10 15 1008.2 - 0.0 - - - - - - -
30/09:30pm 23.9 N 11 17 1008.1 - 0.0 - - - - - - -
30/09:00pm 24.2 N 11 16 1008.0 - 0.0 - - - - - - -
30/08:30pm 24.3 N 11 14 1007.6 - 0.0 - - - - - - -
30/08:00pm 24.5 N 11 15 1007.5 - 0.0 - - - - - - -
30/07:30pm 24.6 N 12 17 1007.3 - 0.0 - - - - - - -
30/07:00pm 24.6 N 10 14 1007.2 - 0.0 - - - - - - -
30/06:30pm 25.0 NNE 14 17 1006.9 - 0.0 - - - - - - -
30/06:00pm 25.1 NNE 15 16 1006.8 - 0.0 - - - - - - -
30/05:30pm 25.7 NNE 16 18 1006.5 - 0.0 - - - - - - -
30/05:00pm 25.6 NNE 16 17 1006.4 - 0.0 - - - - - - -
30/04:30pm 25.6 NNE 16 17 1006.4 - 0.0 - - - - - - -
30/04:00pm 25.8 NNE 16 18 1006.4 - 0.0 - - - - - - -
30/03:30pm 26.1 NE 15 18 1006.4 - 0.0 - - - - - - -
30/03:00pm 26.9 NNE 15 17 1006.6 - 0.0 - - - - - - -
30/02:30pm 26.7 NE 14 16 1007.0 - 0.0 - - - - - - -
30/02:00pm 26.9 NE 14 16 1007.3 - 0.0 - - - - - - -
30/01:30pm 26.0 NNE 12 14 1007.8 - 0.0 - - - - - - -
30/01:00pm 25.8 NNE 12 15 1008.2 - 0.0 - - - - - - -
30/12:30pm 25.6 NE 12 14 1008.6 - 0.0 - - - - - - -
30/12:00pm 25.3 NE 11 14 1009.0 - 0.0 - - - - - - -
30/11:30am 25.4 NE 11 14 1009.2 - 0.0 - - - - - - -
30/11:00am 25.8 NE 6 7 1009.4 - 0.0 - - - - - - -
30/10:30am 25.4 NNE 5 7 1009.8 - 0.0 - - - - - - -
30/10:00am 25.3 E 4 5 1009.9 - 0.0 - - - - - - -
30/09:30am 25.3 SSE 5 6 1009.9 - 0.0 - - - - - - -
30/09:00am 24.6 WSW 3 6 1009.9 - 44.2 - - - - - - -
30/08:30am 23.4 WSW 4 6 1010.0 - 44.2 - - - - - - -
30/08:00am 22.1 W 5 6 1010.1 - 44.2 - - - - - - -
30/07:30am 21.4 NNW 5 6 1010.0 - 44.2 - - - - - - -
30/07:00am 21.2 W 5 6 1009.7 - 44.2 - - - - - - -
30/06:30am 20.7 W 5 5 1009.5 - 44.2 - - - - - - -
30/06:00am 20.6 WSW 5 6 1009.3 - 44.2 Recent precip. - - - - - -
30/05:30am 20.5 SE 5 6 1009.0 - 44.2 - - - - - - -
30/05:00am 20.4 S 8 10 1008.9 - 43.6 - - - - - - -
30/04:30am 20.8 SE 9 12 1008.7 - 43.0 - - - - - - -
30/04:00am 21.1 ESE 10 14 1008.7 - 43.0 - - - - - - -
30/03:30am 21.8 SE 13 16 1008.7 - 42.8 - - - - - - -
30/03:00am 22.3 ESE 15 17 1008.6 - 42.8 - - - - - - -
30/02:30am 21.8 SE 16 17 1008.8 - 42.8 - - - - - - -
30/02:00am 21.5 SE 17 19 1008.9 - 42.8 - - - - - - -
30/01:30am 20.9 SSE 17 20 1009.2 - 42.8 - - - - - - -
30/01:00am 21.0 SSE 17 20 1009.4 - 41.2 - - - - - - -
30/12:30am 21.6 ESE 13 16 1009.2 - 8.4 - - - - - - -
30/12:00am 22.5 ESE 12 16 1009.4 - 0.2 Recent precip. - - - - - -
 
Date/Time
EST
Temp

°C
Wind Pressure Rain
since 9am
mm
Weather Cloud Vis
km
Sea
Height
m
Swell
Dir
 
Speed
knots
Gust
knots
hPa Trend Height
m
Period
s
Dir
29/11:30pm 23.6 ESE 11 14 1009.5 - 0.0 - - - - - - -
29/11:00pm 24.5 ESE 12 15 1009.6 - 0.0 - - - - - - -
29/10:30pm 24.6 ESE 12 15 1009.6 - 0.0 - - - - - - -
29/10:00pm 24.2 ESE 12 15 1009.7 - 0.0 - - - - - - -
29/09:30pm 24.3 SE 17 18 1009.8 - 0.0 - - - - - - -
29/09:00pm 24.8 ESE 12 15 1009.5 - 0.0 - - - - - - -
29/08:30pm 25.0 ESE 12 15 1009.4 - 0.0 - - - - - - -
29/08:00pm 25.0 ESE 12 15 1009.1 - 0.0 - - - - - - -
29/07:30pm 24.9 ESE 11 14 1009.0 - 0.0 - - - - - - -
29/07:00pm 24.8 ESE 13 15 1008.6 - 0.0 - - - - - - -
29/06:30pm 24.8 ESE 13 15 1008.2 - 0.0 - - - - - - -
29/06:00pm 25.0 ESE 14 18 1007.7 - 0.0 - - - - - - -
29/05:30pm 25.5 ESE 13 16 1007.5 - 0.0 - - - - - - -
29/05:00pm 25.4 SE 14 16 1007.3 - 0.0 - - - - - - -
29/04:30pm 25.6 ESE 15 19 1006.9 - 0.0 - - - - - - -
29/04:00pm 25.8 ESE 15 17 1006.7 - 0.0 - - - - - - -
29/03:30pm 26.3 ESE 15 17 1006.9 - 0.0 - - - - - - -
29/03:00pm 26.6 ESE 15 18 1006.9 - 0.0 - - - - - - -
29/02:30pm 26.6 ESE 14 16 1007.0 - 0.0 - - - - - - -
29/02:00pm 27.0 ESE 14 17 1007.2 - 0.0 - - - - - - -
29/01:30pm 27.2 ESE 14 16 1007.4 - 0.0 - - - - - - -
29/01:00pm 27.1 SE 16 19 1007.5 - 0.0 - - - - - - -
29/12:30pm 26.9 SE 16 19 1007.8 - 0.0 - - - - - - -
29/12:00pm 26.0 SE 16 19 1008.0 - 0.0 - - - - - - -
29/11:30am 26.7 SE 16 18 1008.4 - 0.0 - - - - - - -
29/11:00am 26.7 SSE 15 18 1008.6 - 0.0 - - - - - - -
29/10:30am 26.4 SSE 17 22 1008.9 - 0.0 - - - - - - -
29/10:00am 25.6 S 11 14 1009.0 - 0.0 - - - - - - -
29/09:30am 24.0 S 13 16 1008.9 - 0.0 - - - - - - -
29/09:00am 24.6 S 14 18 1008.9 - 0.2 - - - - - - -
29/08:30am 23.3 S 8 11 1008.8 - 0.2 - - - - - - -
29/08:00am 22.5 SSW 8 11 1008.7 - 0.2 - - - - - - -
29/07:30am 21.8 SSW 8 10 1008.4 - 0.2 - - - - - - -
29/07:00am 21.4 SSW 9 11 1008.4 - 0.2 - - - - - - -
29/06:30am 21.1 SSW 9 12 1007.9 - 0.2 - - - - - - -
29/06:00am 20.7 SW 7 10 1007.8 - 0.2 - - - - - - -
29/05:30am 20.6 SW 8 11 1007.6 - 0.2 - - - - - - -

Other Formats:

Comma delimited format used in spreadsheet applications
http://www.bom.gov.au/fwo/IDQ60701/IDQ60701.95591.axf

JavaScript Object Notation format (JSON) in row-major order
http://www.bom.gov.au/fwo/IDQ60701/IDQ60701.95591.json